Time;durP1;ratioP1;P1;durP2;ratioP2;P2;SDS_P1;SDS_P2;PMS_P1;PMS_P2;Temp;Humidity;BMP_temperature;BMP_pressure;BME280_temperature;BME280_humidity;BME280_pressure;Samples;Min_cycle;Max_cycle;Signal;HPM_P1;HPM_P2
2022/08/29 00:02:04;;;;;;;7.20;2.10;;;25.00;65.50;;;;;;5032789;28;20447;-69
2022/08/29 00:04:30;;;;;;;5.00;1.90;;;25.00;65.50;;;;;;5032570;28;20466;-70
2022/08/29 00:06:56;;;;;;;5.88;1.80;;;25.00;65.50;;;;;;5032396;28;20374;-71
2022/08/29 00:09:21;;;;;;;5.20;2.10;;;25.00;65.50;;;;;;5032620;28;20046;-70
2022/08/29 00:11:47;;;;;;;4.18;1.98;;;25.00;65.60;;;;;;5032864;28;20079;-71
2022/08/29 00:14:13;;;;;;;3.70;1.70;;;25.00;65.30;;;;;;5036422;28;20041;-72
2022/08/29 00:16:39;;;;;;;3.90;1.58;;;25.00;65.20;;;;;;5018481;28;20018;-71
2022/08/29 00:19:05;;;;;;;4.47;2.05;;;25.00;65.20;;;;;;5036343;28;20117;-70
2022/08/29 00:21:31;;;;;;;3.03;1.83;;;25.00;65.10;;;;;;5036313;28;20075;-70
2022/08/29 00:23:57;;;;;;;5.03;1.88;;;25.00;65.30;;;;;;5036080;28;20034;-70
2022/08/29 00:26:23;;;;;;;3.60;1.70;;;24.90;65.40;;;;;;5036252;28;20095;-69
2022/08/29 00:28:48;;;;;;;4.10;1.85;;;24.90;65.60;;;;;;5018456;28;20481;-70
2022/08/29 00:31:14;;;;;;;6.70;2.17;;;24.70;65.70;;;;;;5036130;28;20514;-70
2022/08/29 00:33:40;;;;;;;3.13;1.63;;;24.60;66.00;;;;;;5035961;28;20037;-70
2022/08/29 00:36:08;;;;;;;3.42;1.88;;;24.50;66.30;;;;;;5036282;28;20418;-69
2022/08/29 00:38:35;;;;;;;4.05;2.00;;;24.50;66.70;;;;;;5035796;28;20547;-69
2022/08/29 00:41:01;;;;;;;2.67;1.60;;;24.50;66.50;;;;;;5035923;28;20111;-70
2022/08/29 00:43:33;;;;;;;5.45;1.77;;;24.50;66.60;;;;;;5035898;28;20053;-69
2022/08/29 00:46:33;;;;;;;3.77;1.80;;;24.50;66.90;;;;;;5035844;28;20075;-69
2022/08/29 00:49:03;;;;;;;3.45;1.88;;;24.50;66.20;;;;;;5035572;28;20260;-71
2022/08/29 00:51:31;;;;;;;3.55;1.90;;;24.50;66.90;;;;;;5035653;28;20026;-69
2022/08/29 00:54:08;;;;;;;4.32;1.80;;;24.50;67.00;;;;;;5035489;28;20114;-70
2022/08/29 00:56:36;;;;;;;6.50;2.00;;;24.50;67.10;;;;;;5035631;28;20021;-70
2022/08/29 00:59:08;;;;;;;3.90;1.65;;;24.40;67.00;;;;;;5035594;28;20128;-70
2022/08/29 01:01:34;;;;;;;3.88;1.75;;;24.30;67.20;;;;;;5035565;28;20029;-70
2022/08/29 01:04:00;;;;;;;4.97;1.60;;;24.30;67.20;;;;;;5035494;28;20071;-69
2022/08/29 01:06:27;;;;;;;3.72;1.80;;;24.30;67.30;;;;;;5035606;28;20435;-68
2022/08/29 01:08:54;;;;;;;5.53;1.70;;;24.40;67.40;;;;;;5035323;28;20064;-69
2022/08/29 01:14:05;;;;;;;5.63;1.88;;;24.30;67.60;;;;;;5035208;28;20127;-70
2022/08/29 01:16:31;;;;;;;4.10;1.98;;;24.30;67.60;;;;;;5035199;28;20065;-69
2022/08/29 01:19:03;;;;;;;4.05;2.08;;;24.30;68.10;;;;;;5035169;28;20099;-70
2022/08/29 01:21:38;;;;;;;4.55;1.88;;;24.30;67.90;;;;;;5017554;28;20045;-69
2022/08/29 01:24:27;;;;;;;3.97;1.75;;;24.40;66.50;;;;;;5035227;28;20504;-70
2022/08/29 01:26:53;;;;;;;8.38;1.88;;;24.50;67.40;;;;;;5023053;28;20037;-70
2022/08/29 01:29:18;;;;;;;5.30;1.92;;;24.50;67.40;;;;;;5035096;28;20029;-70
2022/08/29 01:31:48;;;;;;;5.75;1.77;;;24.50;67.00;;;;;;5035116;28;20045;-70
2022/08/29 01:34:16;;;;;;;2.63;1.52;;;24.50;66.90;;;;;;5034818;28;20037;-71
2022/08/29 01:36:46;;;;;;;5.00;1.70;;;24.50;66.80;;;;;;5035011;28;20060;-71
2022/08/29 01:39:12;;;;;;;4.10;1.55;;;24.50;66.10;;;;;;5034854;28;20083;-73
2022/08/29 01:41:38;;;;;;;6.57;1.70;;;24.50;66.80;;;;;;5034956;28;20394;-71
2022/08/29 01:44:13;;;;;;;5.20;1.50;;;24.40;66.80;;;;;;5034677;28;20398;-72
2022/08/29 01:46:39;;;;;;;4.75;1.50;;;24.30;66.10;;;;;;5034760;28;20060;-72
2022/08/29 01:49:08;;;;;;;3.40;1.60;;;24.20;67.20;;;;;;5034692;28;20065;-72
2022/08/29 01:51:36;;;;;;;4.00;1.60;;;24.20;67.40;;;;;;5034609;28;20032;-73
2022/08/29 01:54:04;;;;;;;7.03;1.85;;;24.10;67.70;;;;;;5034457;28;20368;-74
2022/08/29 01:56:32;;;;;;;5.43;1.90;;;24.00;67.80;;;;;;5034652;28;20095;-71
2022/08/29 01:59:00;;;;;;;4.57;1.77;;;24.00;68.10;;;;;;5034604;28;20026;-72
2022/08/29 02:01:33;;;;;;;6.10;1.90;;;24.00;67.80;;;;;;5034378;28;20028;-71
2022/08/29 02:03:58;;;;;;;4.72;1.60;;;23.90;68.10;;;;;;5014945;28;20021;-71
2022/08/29 02:06:26;;;;;;;4.63;1.63;;;23.90;68.40;;;;;;5034460;28;20171;-72
2022/08/29 02:08:52;;;;;;;5.13;1.77;;;23.80;68.40;;;;;;5039191;28;20432;-69
2022/08/29 02:11:18;;;;;;;5.15;1.67;;;23.80;68.60;;;;;;5056003;28;20024;-71
2022/08/29 02:13:50;;;;;;;3.08;1.77;;;23.80;68.60;;;;;;5054335;28;20484;-70
2022/08/29 02:16:16;;;;;;;5.00;1.70;;;23.80;68.90;;;;;;5054107;28;20500;-72
2022/08/29 02:18:42;;;;;;;3.47;1.60;;;23.80;68.80;;;;;;5054014;28;20381;-72
2022/08/29 02:21:10;;;;;;;5.13;1.88;;;23.80;69.10;;;;;;5034874;28;20513;-72
2022/08/29 02:23:39;;;;;;;5.50;2.20;;;23.80;69.50;;;;;;5033773;28;20137;-72
2022/08/29 02:26:05;;;;;;;3.75;1.90;;;23.70;69.50;;;;;;5034086;28;20025;-70
2022/08/29 02:28:32;;;;;;;7.63;1.92;;;23.70;69.70;;;;;;5034011;28;20100;-71
2022/08/29 02:30:58;;;;;;;6.85;2.30;;;23.80;69.70;;;;;;5033820;28;20018;-69
2022/08/29 02:33:25;;;;;;;4.10;1.98;;;23.80;69.70;;;;;;5033531;28;20037;-69
2022/08/29 02:35:52;;;;;;;5.93;2.30;;;23.90;69.50;;;;;;5033680;28;20128;-71
2022/08/29 02:38:18;;;;;;;6.72;1.88;;;23.80;69.60;;;;;;5033836;28;20025;-70
2022/08/29 02:40:45;;;;;;;4.78;1.85;;;23.80;69.90;;;;;;5033730;28;20037;-69
2022/08/29 02:43:11;;;;;;;4.57;2.10;;;23.80;69.80;;;;;;5033830;28;20458;-70
2022/08/29 02:45:40;;;;;;;8.27;1.98;;;23.80;69.80;;;;;;5033624;28;20025;-70
2022/08/29 02:48:06;;;;;;;5.72;2.05;;;23.80;69.90;;;;;;5033641;28;20125;-68
2022/08/29 02:50:33;;;;;;;5.13;1.98;;;23.80;69.70;;;;;;5033593;28;20438;-69
2022/08/29 02:52:59;;;;;;;4.45;1.85;;;23.80;70.00;;;;;;5033355;28;20501;-70
2022/08/29 02:55:25;;;;;;;5.60;2.10;;;23.80;69.90;;;;;;5033362;28;20034;-71
2022/08/29 02:57:52;;;;;;;6.18;2.13;;;23.70;70.00;;;;;;5033663;28;20484;-71
2022/08/29 03:00:22;;;;;;;6.20;1.90;;;23.60;70.30;;;;;;5033249;28;20115;-72
2022/08/29 03:02:48;;;;;;;6.28;1.77;;;23.60;70.50;;;;;;5033158;28;20029;-70
2022/08/29 03:05:16;;;;;;;3.28;1.77;;;23.50;70.40;;;;;;5033207;28;20026;-72
2022/08/29 03:07:42;;;;;;;3.47;1.83;;;23.50;70.60;;;;;;5033464;28;20072;-72
2022/08/29 03:10:08;;;;;;;4.50;1.80;;;23.40;70.70;;;;;;5033184;28;20049;-72
2022/08/29 03:12:36;;;;;;;4.85;1.73;;;23.50;70.60;;;;;;5015231;28;20017;-71
2022/08/29 03:15:03;;;;;;;5.47;1.83;;;23.50;70.50;;;;;;5032848;28;20039;-70
2022/08/29 03:17:29;;;;;;;5.32;1.60;;;23.50;70.60;;;;;;5032967;28;20025;-68
2022/08/29 03:19:57;;;;;;;8.90;1.95;;;23.50;70.90;;;;;;5033055;28;20398;-70
2022/08/29 03:22:23;;;;;;;5.72;1.88;;;23.50;70.20;;;;;;5033057;28;20028;-72
2022/08/29 03:24:49;;;;;;;6.70;1.67;;;23.50;70.00;;;;;;5033053;28;20445;-71
2022/08/29 03:27:14;;;;;;;3.22;1.35;;;23.60;69.90;;;;;;5032968;28;20045;-69
2022/08/29 03:29:40;;;;;;;3.22;1.67;;;23.60;69.90;;;;;;5032918;28;20382;-71
2022/08/29 03:32:06;;;;;;;4.68;1.80;;;23.50;69.70;;;;;;5033277;28;20017;-70
2022/08/29 03:34:32;;;;;;;6.03;1.77;;;23.60;70.00;;;;;;5032777;28;20402;-74
2022/08/29 03:36:59;;;;;;;6.38;1.70;;;23.60;69.80;;;;;;5032916;28;20032;-70
2022/08/29 03:39:25;;;;;;;4.47;2.00;;;23.50;69.90;;;;;;5032906;28;20033;-70
2022/08/29 03:41:51;;;;;;;3.58;1.52;;;23.50;70.10;;;;;;5032775;28;20026;-71
2022/08/29 03:44:16;;;;;;;5.43;1.88;;;23.50;70.10;;;;;;5032504;28;20091;-71
2022/08/29 03:46:42;;;;;;;7.45;1.80;;;23.40;70.20;;;;;;5032382;28;20025;-71
2022/08/29 03:49:08;;;;;;;5.22;1.75;;;23.40;70.20;;;;;;5032927;28;20203;-69
2022/08/29 03:51:35;;;;;;;9.25;2.00;;;23.30;70.50;;;;;;5032989;28;20505;-71
2022/08/29 03:54:01;;;;;;;4.13;1.92;;;23.30;70.70;;;;;;5032803;28;20037;-69
2022/08/29 03:56:27;;;;;;;7.57;2.70;;;23.40;70.60;;;;;;5033169;28;20020;-71
2022/08/29 03:58:54;;;;;;;5.45;2.00;;;23.40;70.30;;;;;;5032725;28;20029;-69
2022/08/29 04:01:27;;;;;;;3.20;1.40;;;23.40;70.60;;;;;;5032582;28;20458;-71
2022/08/29 04:03:53;;;;;;;7.40;1.40;;;23.50;70.70;;;;;;5032641;28;20026;-70
2022/08/29 04:06:21;;;;;;;4.10;1.55;;;23.50;70.70;;;;;;5032547;28;20048;-69
2022/08/29 04:08:47;;;;;;;6.50;1.80;;;23.50;71.10;;;;;;5032192;28;20091;-70
2022/08/29 04:11:14;;;;;;;3.72;1.90;;;23.50;70.80;;;;;;5032469;28;20090;-69
2022/08/29 04:13:41;;;;;;;4.47;1.55;;;23.40;70.60;;;;;;5032384;28;20029;-70
2022/08/29 04:16:16;;;;;;;3.65;1.85;;;23.40;70.60;;;;;;5032642;28;20043;-69
2022/08/29 04:18:42;;;;;;;3.08;1.63;;;23.40;71.10;;;;;;5032540;28;20025;-68
2022/08/29 04:21:09;;;;;;;4.28;2.00;;;23.40;71.10;;;;;;5033177;28;20034;-70
2022/08/29 04:23:36;;;;;;;7.70;1.90;;;23.40;71.40;;;;;;5032443;28;20029;-72
2022/08/29 04:26:01;;;;;;;4.82;1.80;;;23.40;71.00;;;;;;5032456;28;20447;-72
2022/08/29 04:28:27;;;;;;;4.00;1.88;;;23.40;71.10;;;;;;5032259;28;20032;-72
2022/08/29 04:30:53;;;;;;;5.30;1.75;;;23.50;70.80;;;;;;5032282;28;20021;-72
2022/08/29 04:33:21;;;;;;;6.63;2.00;;;23.40;70.80;;;;;;5032070;28;20433;-71
2022/08/29 04:35:48;;;;;;;4.03;1.77;;;23.50;71.10;;;;;;5014680;28;20033;-72
2022/08/29 04:38:14;;;;;;;4.25;1.80;;;23.40;71.10;;;;;;5032250;28;20022;-71
2022/08/29 04:40:41;;;;;;;5.57;2.03;;;23.40;71.50;;;;;;5032189;28;20036;-70
2022/08/29 04:43:07;;;;;;;4.15;1.60;;;23.40;71.50;;;;;;5032025;28;20505;-72
2022/08/29 04:45:34;;;;;;;4.90;1.83;;;23.30;71.40;;;;;;5031944;28;20033;-72
2022/08/29 04:48:01;;;;;;;6.00;1.88;;;23.40;71.80;;;;;;5032406;28;20022;-72
2022/08/29 04:50:28;;;;;;;6.10;1.73;;;23.40;71.80;;;;;;5033431;28;20025;-71
2022/08/29 04:52:54;;;;;;;5.32;1.90;;;23.40;71.50;;;;;;5031990;28;20145;-71
2022/08/29 04:55:22;;;;;;;4.05;1.80;;;23.30;71.70;;;;;;5031923;28;20386;-71
2022/08/29 04:57:49;;;;;;;3.97;1.98;;;23.20;71.70;;;;;;5031951;28;20099;-71
2022/08/29 05:00:18;;;;;;;7.20;1.88;;;23.20;72.70;;;;;;5034343;28;20036;-72
2022/08/29 05:02:44;;;;;;;4.50;1.80;;;23.20;72.30;;;;;;5035472;28;20497;-72
2022/08/29 05:05:13;;;;;;;6.35;1.85;;;23.20;72.10;;;;;;5035590;28;20033;-71
2022/08/29 05:07:39;;;;;;;5.20;1.77;;;23.20;72.30;;;;;;5035297;28;20046;-72
2022/08/29 05:10:09;;;;;;;6.00;1.90;;;23.20;72.10;;;;;;5035474;28;20223;-71
2022/08/29 05:12:36;;;;;;;8.18;1.92;;;23.30;72.40;;;;;;5036473;28;20037;-71
2022/08/29 05:15:03;;;;;;;6.03;2.30;;;23.20;71.80;;;;;;5035092;28;20034;-71
2022/08/29 05:17:28;;;;;;;4.53;1.80;;;23.20;72.10;;;;;;5035276;28;20492;-71
2022/08/29 05:19:54;;;;;;;4.88;2.10;;;23.20;72.10;;;;;;5036632;28;20109;-74
2022/08/29 05:22:20;;;;;;;11.48;2.10;;;23.30;71.90;;;;;;5034781;28;20022;-72
2022/08/29 05:24:47;;;;;;;10.70;1.95;;;23.40;72.10;;;;;;5035305;28;20026;-72
2022/08/29 05:27:20;;;;;;;6.90;2.55;;;23.40;72.00;;;;;;5035186;28;20022;-72
2022/08/29 05:29:47;;;;;;;5.85;1.75;;;23.30;71.70;;;;;;5035015;28;20036;-72
2022/08/29 05:32:14;;;;;;;9.10;2.13;;;23.30;72.30;;;;;;5028328;28;20036;-73
2022/08/29 05:34:41;;;;;;;6.05;2.40;;;23.40;72.20;;;;;;5032695;28;20402;-73
2022/08/29 05:37:10;;;;;;;3.70;1.95;;;23.40;72.00;;;;;;5034945;28;20018;-72
2022/08/29 05:39:37;;;;;;;4.03;1.90;;;23.60;72.00;;;;;;5034838;28;20367;-72
2022/08/29 05:42:04;;;;;;;6.10;2.00;;;23.60;71.90;;;;;;5034896;28;20036;-74
2022/08/29 05:44:31;;;;;;;5.50;2.00;;;23.50;71.90;;;;;;5034851;28;20029;-70
2022/08/29 05:46:58;;;;;;;4.95;2.20;;;23.50;72.20;;;;;;5034596;28;20021;-74
2022/08/29 05:49:24;;;;;;;5.45;2.13;;;23.60;72.60;;;;;;5034737;28;20048;-73
2022/08/29 05:51:53;;;;;;;8.00;2.40;;;23.70;72.00;;;;;;5034400;28;20116;-71
2022/08/29 05:54:20;;;;;;;5.45;1.70;;;23.90;71.80;;;;;;5034436;28;20029;-73
2022/08/29 05:56:46;;;;;;;12.25;2.47;;;24.10;71.40;;;;;;5034564;28;20470;-69
2022/08/29 05:59:12;;;;;;;6.38;2.10;;;24.40;70.70;;;;;;5034638;28;20029;-69
2022/08/29 06:01:38;;;;;;;4.90;1.98;;;24.70;69.80;;;;;;5034338;28;20052;-70
2022/08/29 06:04:04;;;;;;;5.25;2.00;;;25.00;69.20;;;;;;5034620;28;20075;-68
2022/08/29 06:06:30;;;;;;;4.78;1.70;;;25.30;68.30;;;;;;5034401;28;20025;-69
2022/08/29 06:08:57;;;;;;;5.53;1.95;;;25.50;67.60;;;;;;5021604;28;20122;-69
2022/08/29 06:11:33;;;;;;;26.02;4.00;;;25.70;67.40;;;;;;5054123;28;20021;-69
2022/08/29 06:13:59;;;;;;;40.10;5.90;;;26.00;66.40;;;;;;5053892;28;20033;-70
2022/08/29 06:16:27;;;;;;;10.00;2.38;;;26.00;65.80;;;;;;5046536;28;20040;-72
2022/08/29 06:18:54;;;;;;;8.57;2.42;;;26.30;65.10;;;;;;5053986;28;20021;-71
2022/08/29 06:21:20;;;;;;;5.10;1.90;;;26.50;64.30;;;;;;5045569;28;20032;-72
2022/08/29 06:23:48;;;;;;;5.80;2.28;;;26.80;63.60;;;;;;5033832;28;20475;-71
2022/08/29 06:26:15;;;;;;;5.22;1.88;;;26.80;62.70;;;;;;5038463;28;20029;-72
2022/08/29 06:28:46;;;;;;;7.95;1.92;;;27.00;62.80;;;;;;5052187;28;20095;-70
2022/08/29 06:31:19;;;;;;;9.68;2.25;;;27.10;61.90;;;;;;5043464;28;20025;-72
2022/08/29 06:33:45;;;;;;;7.15;2.50;;;27.30;60.90;;;;;;5035964;28;20039;-73
2022/08/29 06:36:12;;;;;;;60.72;4.38;;;27.50;61.30;;;;;;5046655;28;20057;-71
2022/08/29 06:38:37;;;;;;;10.18;2.20;;;27.80;60.50;;;;;;5030749;28;20447;-70
2022/08/29 06:41:12;;;;;;;5.80;2.05;;;27.90;59.70;;;;;;5023210;28;20040;-71
2022/08/29 06:43:39;;;;;;;25.73;3.60;;;27.90;58.50;;;;;;5010680;28;20036;-70
2022/08/29 06:46:05;;;;;;;9.75;2.58;;;28.00;59.10;;;;;;5016969;28;20040;-72
2022/08/29 06:48:31;;;;;;;14.05;3.67;;;28.10;58.60;;;;;;5018851;28;20038;-70
2022/08/29 06:51:01;;;;;;;14.27;2.40;;;28.10;58.40;;;;;;5033824;28;20043;-75
2022/08/29 06:53:28;;;;;;;7.85;2.30;;;28.10;58.40;;;;;;5010418;28;20402;-73
2022/08/29 06:55:54;;;;;;;9.50;2.20;;;28.20;57.60;;;;;;5028902;28;20490;-74
2022/08/29 06:58:20;;;;;;;9.93;2.88;;;28.20;58.00;;;;;;5037592;28;20029;-73
2022/08/29 07:00:46;;;;;;;6.15;2.00;;;28.30;57.80;;;;;;5024222;28;20040;-73
2022/08/29 07:03:12;;;;;;;7.57;2.08;;;28.50;57.20;;;;;;5007484;28;20029;-69
2022/08/29 07:05:38;;;;;;;7.05;1.90;;;28.60;56.60;;;;;;5036009;28;20079;-73
2022/08/29 07:08:04;;;;;;;6.60;2.40;;;28.60;56.50;;;;;;5010400;28;20045;-73
2022/08/29 07:10:30;;;;;;;6.63;2.08;;;28.80;56.30;;;;;;5011705;28;20068;-73
2022/08/29 07:12:56;;;;;;;10.95;2.65;;;28.90;55.90;;;;;;5023873;28;20449;-75
2022/08/29 07:15:22;;;;;;;6.60;2.30;;;29.00;56.00;;;;;;5025330;28;20080;-74
2022/08/29 07:17:48;;;;;;;4.68;2.03;;;29.20;55.90;;;;;;5021329;28;20029;-75
2022/08/29 07:20:15;;;;;;;9.23;2.40;;;29.30;55.30;;;;;;5024102;28;20040;-73
2022/08/29 07:22:41;;;;;;;6.20;2.28;;;29.30;55.30;;;;;;5027332;28;20116;-75
2022/08/29 07:25:09;;;;;;;5.90;2.15;;;29.40;54.90;;;;;;5028357;28;20377;-81
2022/08/29 07:27:35;;;;;;;6.00;2.05;;;29.50;54.40;;;;;;5028465;28;20041;-76
2022/08/29 07:30:03;;;;;;;5.50;1.90;;;29.50;54.20;;;;;;5017153;28;20033;-78
2022/08/29 07:32:29;;;;;;;5.25;1.73;;;29.60;54.00;;;;;;5029079;28;20378;-77
2022/08/29 07:34:54;;;;;;;9.77;2.08;;;29.50;53.70;;;;;;5026904;28;20051;-79
2022/08/29 07:37:20;;;;;;;12.50;2.30;;;29.40;54.10;;;;;;5032576;28;21674;-75
2022/08/29 07:39:46;;;;;;;7.55;2.00;;;29.40;54.20;;;;;;5009904;28;20060;-73
2022/08/29 07:42:12;;;;;;;9.25;2.10;;;29.40;54.20;;;;;;5011534;28;20584;-76
2022/08/29 07:44:37;;;;;;;6.38;2.15;;;29.40;54.00;;;;;;5027450;28;20479;-75
2022/08/29 07:47:04;;;;;;;6.63;2.17;;;29.40;54.00;;;;;;5006097;28;20129;-73
2022/08/29 07:49:31;;;;;;;8.20;2.30;;;29.40;53.80;;;;;;5030806;28;20116;-74
2022/08/29 07:51:57;;;;;;;6.65;1.98;;;29.40;53.90;;;;;;5028867;28;20029;-73
2022/08/29 07:54:23;;;;;;;7.35;2.20;;;29.30;53.90;;;;;;5032971;28;20056;-79
2022/08/29 07:56:50;;;;;;;12.80;2.50;;;29.10;54.00;;;;;;5031802;28;20029;-77
2022/08/29 07:59:18;;;;;;;12.20;2.95;;;29.00;54.40;;;;;;5032832;28;20067;-78
2022/08/29 08:01:45;;;;;;;6.55;2.03;;;29.10;54.60;;;;;;5011783;28;20036;-76
2022/08/29 08:04:11;;;;;;;3.80;1.73;;;29.00;54.50;;;;;;5031717;28;20041;-76
2022/08/29 08:06:39;;;;;;;10.05;2.58;;;29.00;54.30;;;;;;5050940;28;20030;-77
2022/08/29 08:09:06;;;;;;;4.78;2.17;;;28.90;54.60;;;;;;5053288;28;20049;-79
2022/08/29 08:11:33;;;;;;;9.85;3.05;;;28.90;54.70;;;;;;5054165;28;20580;-76
2022/08/29 08:13:59;;;;;;;9.13;2.53;;;28.90;54.50;;;;;;5034964;28;20033;-78
2022/08/29 08:16:27;;;;;;;12.73;2.75;;;28.70;55.20;;;;;;5044225;28;20060;-79
2022/08/29 08:18:54;;;;;;;20.73;3.72;;;28.70;55.30;;;;;;5043963;28;20122;-77
2022/08/29 08:21:21;;;;;;;19.40;3.65;;;28.50;55.50;;;;;;5014170;28;20028;-79
2022/08/29 08:23:47;;;;;;;24.35;4.60;;;28.50;55.90;;;;;;5033958;28;20421;-78
2022/08/29 08:26:13;;;;;;;17.58;3.38;;;28.40;55.90;;;;;;5015808;28;20030;-78
2022/08/29 08:28:40;;;;;;;10.00;2.47;;;28.40;56.20;;;;;;5033603;28;20026;-78
2022/08/29 08:31:08;;;;;;;9.48;2.75;;;28.30;56.60;;;;;;5016012;28;20108;-77
2022/08/29 08:33:37;;;;;;;15.38;4.18;;;28.20;56.60;;;;;;5034801;28;20030;-77
2022/08/29 08:36:11;;;;;;;11.05;4.07;;;28.10;56.70;;;;;;5037811;28;20041;-78
2022/08/29 08:38:36;;;;;;;18.20;4.90;;;28.10;57.00;;;;;;5037288;28;20025;-78
2022/08/29 08:41:16;;;;;;;8.52;2.25;;;28.10;57.20;;;;;;5036905;28;20056;-78
2022/08/29 08:43:59;;;;;;;15.35;4.60;;;28.10;56.60;;;;;;5037117;28;20037;-77
2022/08/29 08:46:34;;;;;;;15.02;4.95;;;28.10;57.10;;;;;;5037230;28;20064;-77
2022/08/29 08:49:05;;;;;;;9.73;3.28;;;28.10;57.90;;;;;;5037506;28;20378;-80
2022/08/29 08:51:34;;;;;;;8.07;3.00;;;28.10;58.00;;;;;;5034917;28;20022;-78
2022/08/29 08:54:03;;;;;;;8.45;2.38;;;28.20;58.20;;;;;;5036619;28;20041;-77
2022/08/29 08:56:40;;;;;;;8.07;2.90;;;28.20;58.00;;;;;;5036326;28;20042;-79
2022/08/29 08:59:15;;;;;;;8.10;2.50;;;28.10;58.40;;;;;;5019548;28;20029;-79
2022/08/29 09:01:57;;;;;;;10.23;2.80;;;28.10;57.80;;;;;;5036153;28;20021;-80
2022/08/29 09:04:53;;;;;;;7.53;2.30;;;28.00;58.30;;;;;;5035826;28;20079;-80
2022/08/29 09:07:43;;;;;;;6.47;2.40;;;28.00;58.40;;;;;;5036162;28;20034;-79
2022/08/29 09:10:46;;;;;;;8.35;2.90;;;28.00;58.60;;;;;;5035767;28;20053;-77
2022/08/29 09:13:26;;;;;;;8.57;1.98;;;28.00;58.50;;;;;;5035783;28;20030;-78
2022/08/29 09:15:57;;;;;;;7.38;2.45;;;28.00;59.40;;;;;;5035898;28;20486;-77
2022/08/29 09:18:38;;;;;;;16.55;3.08;;;28.10;59.30;;;;;;5036217;28;20018;-77
2022/08/29 09:21:13;;;;;;;10.70;2.72;;;28.10;58.40;;;;;;5035675;28;20035;-77
2022/08/29 09:23:41;;;;;;;11.75;3.08;;;28.30;58.20;;;;;;5036039;28;20025;-76
2022/08/29 09:26:07;;;;;;;7.50;2.30;;;28.40;58.80;;;;;;5036872;28;20025;-77
2022/08/29 09:28:34;;;;;;;17.65;5.35;;;28.40;58.70;;;;;;5035896;28;20052;-78
2022/08/29 09:31:19;;;;;;;5.45;2.55;;;28.50;58.70;;;;;;5035420;28;20029;-79
2022/08/29 09:33:54;;;;;;;7.72;1.92;;;28.50;59.10;;;;;;5035059;28;20021;-76
2022/08/29 09:36:41;;;;;;;7.35;2.65;;;28.50;58.30;;;;;;5035381;28;20033;-79
2022/08/29 09:39:19;;;;;;;3.72;1.90;;;28.50;59.50;;;;;;5035106;28;20030;-78
2022/08/29 09:41:49;;;;;;;14.77;2.67;;;28.60;58.30;;;;;;5018998;28;20128;-79
2022/08/29 09:44:24;;;;;;;7.97;2.67;;;28.60;59.10;;;;;;5037244;28;20021;-78
2022/08/29 09:47:10;;;;;;;8.13;2.10;;;28.60;58.70;;;;;;5037096;28;20036;-78
2022/08/29 09:49:38;;;;;;;8.73;2.50;;;28.80;58.10;;;;;;5040605;28;20065;-78
2022/08/29 09:52:14;;;;;;;2.42;1.52;;;28.80;58.80;;;;;;5036617;28;20088;-76
2022/08/29 09:54:41;;;;;;;4.82;2.00;;;28.80;58.60;;;;;;5034709;28;20092;-78
2022/08/29 09:57:21;;;;;;;5.40;1.70;;;28.80;58.50;;;;;;5035876;28;20034;-79
2022/08/29 10:00:22;;;;;;;10.25;2.63;;;28.90;58.50;;;;;;5035671;28;20029;-78
2022/08/29 10:02:50;;;;;;;20.65;3.70;;;28.90;57.20;;;;;;5035344;28;20026;-80
2022/08/29 10:05:40;;;;;;;7.35;2.08;;;29.00;57.70;;;;;;5034858;28;20029;-78
2022/08/29 10:08:42;;;;;;;12.77;2.97;;;29.00;57.10;;;;;;5035280;28;20064;-79
2022/08/29 10:11:54;;;;;;;24.63;2.50;;;29.10;55.80;;;;;;4955415;29;20044;-80
2022/08/29 10:14:37;;;;;;;11.73;2.83;;;29.20;55.40;;;;;;5017258;28;20084;-79
2022/08/29 10:20:00;;;;;;;7.20;2.45;;;29.40;56.80;;;;;;5035436;28;20036;-78
2022/08/29 10:22:37;;;;;;;6.32;2.55;;;29.50;56.70;;;;;;5035025;28;20091;-78
2022/08/29 10:25:15;;;;;;;6.80;2.30;;;29.50;55.40;;;;;;5034649;28;20040;-77
2022/08/29 10:28:01;;;;;;;10.45;2.25;;;29.50;56.50;;;;;;5034460;28;20025;-76
2022/08/29 10:30:45;;;;;;;8.18;2.80;;;29.60;56.30;;;;;;5035304;28;20049;-80
2022/08/29 10:33:29;;;;;;;8.45;2.70;;;29.60;55.70;;;;;;5034293;28;20014;-78
2022/08/29 10:36:07;;;;;;;8.70;3.03;;;29.70;54.20;;;;;;5034607;28;20117;-76
2022/08/29 10:38:41;;;;;;;11.82;2.70;;;29.80;55.50;;;;;;5018284;28;20064;-79
2022/08/29 10:41:16;;;;;;;6.72;2.05;;;29.90;54.00;;;;;;5034447;28;20052;-79
2022/08/29 10:44:11;;;;;;;10.90;2.75;;;29.90;55.50;;;;;;5034136;28;20380;-79
2022/08/29 10:47:14;;;;;;;6.85;1.90;;;30.00;53.30;;;;;;5034530;28;20485;-79
2022/08/29 10:50:06;;;;;;;7.78;2.28;;;30.10;53.60;;;;;;5033904;28;20059;-79
2022/08/29 10:52:46;;;;;;;7.47;2.30;;;30.10;53.30;;;;;;5023990;28;20032;-77
2022/08/29 10:55:38;;;;;;;7.40;3.25;;;30.20;52.50;;;;;;5033915;28;20044;-76
2022/08/29 10:58:13;;;;;;;6.07;2.22;;;30.30;52.80;;;;;;5033180;28;20482;-78
2022/08/29 11:01:03;;;;;;;5.35;2.25;;;30.30;52.40;;;;;;5034318;28;20041;-78
2022/08/29 11:03:34;;;;;;;5.65;2.85;;;30.50;53.50;;;;;;4976409;28;20124;-77
2022/08/29 11:06:06;;;;;;;7.72;2.30;;;30.60;52.90;;;;;;5033872;28;20026;-78
2022/08/29 11:08:43;;;;;;;5.85;2.47;;;30.60;52.50;;;;;;5033795;28;20021;-76
2022/08/29 11:11:09;;;;;;;7.13;2.03;;;30.70;52.40;;;;;;5033642;28;20046;-79
2022/08/29 11:13:41;;;;;;;7.03;2.17;;;30.70;51.90;;;;;;5033479;28;20160;-77
2022/08/29 11:16:19;;;;;;;6.05;2.58;;;30.80;51.90;;;;;;5033303;28;20036;-76
2022/08/29 11:18:47;;;;;;;10.50;2.40;;;30.90;50.50;;;;;;5033734;28;20030;-77
2022/08/29 11:21:45;;;;;;;6.00;2.17;;;31.00;51.80;;;;;;5034175;28;20026;-77
2022/08/29 11:24:12;;;;;;;4.85;2.20;;;31.00;50.60;;;;;;5034130;28;20017;-77
2022/08/29 11:27:01;;;;;;;5.95;1.70;;;31.10;51.40;;;;;;5033879;28;20048;-77
2022/08/29 11:30:11;;;;;;;4.97;2.10;;;31.10;49.50;;;;;;5033503;28;20021;-79
2022/08/29 11:33:08;;;;;;;7.70;2.40;;;31.10;50.50;;;;;;4953380;29;20027;-78
2022/08/29 11:35:40;;;;;;;3.95;1.95;;;31.20;50.30;;;;;;4953539;28;20074;-78
2022/08/29 11:38:37;;;;;;;8.40;2.30;;;31.20;49.90;;;;;;5014083;28;20039;-79
2022/08/29 11:41:27;;;;;;;5.95;2.60;;;31.30;49.60;;;;;;5033435;28;20033;-79
2022/08/29 11:44:14;;;;;;;11.68;2.33;;;31.40;49.10;;;;;;5033185;28;20112;-78
2022/08/29 11:46:44;;;;;;;9.18;3.15;;;31.40;49.10;;;;;;5033613;28;20030;-80
2022/08/29 11:49:34;;;;;;;5.97;2.17;;;31.50;50.10;;;;;;5033789;28;20022;-79
2022/08/29 11:52:15;;;;;;;6.22;3.08;;;31.60;48.30;;;;;;5033572;28;20100;-79
2022/08/29 11:54:48;;;;;;;8.00;2.22;;;31.80;49.50;;;;;;5033495;28;20548;-80
2022/08/29 11:57:15;;;;;;;5.10;2.20;;;31.80;48.00;;;;;;5033103;28;20017;-78
2022/08/29 11:59:53;;;;;;;5.15;2.35;;;32.00;49.00;;;;;;5032937;28;20057;-80
2022/08/29 12:02:30;;;;;;;5.72;2.15;;;32.00;48.10;;;;;;5033317;28;20489;-78
2022/08/29 12:05:13;;;;;;;5.95;2.00;;;32.00;48.10;;;;;;5032884;28;20068;-77
2022/08/29 12:07:48;;;;;;;7.47;2.75;;;32.10;48.70;;;;;;5033085;28;20104;-78
2022/08/29 12:10:22;;;;;;;5.97;2.75;;;32.20;50.10;;;;;;5036965;28;20069;-79
2022/08/29 12:13:06;;;;;;;4.95;1.92;;;32.30;50.40;;;;;;5037024;28;20045;-77
2022/08/29 12:15:31;;;;;;;6.93;2.22;;;32.30;50.80;;;;;;5037290;28;20041;-78
2022/08/29 12:18:01;;;;;;;4.50;1.75;;;32.30;51.30;;;;;;5037329;28;20025;-78
2022/08/29 12:20:30;;;;;;;7.68;2.25;;;32.30;52.10;;;;;;5037210;28;20105;-78
2022/08/29 12:22:58;;;;;;;7.15;2.25;;;32.40;51.40;;;;;;5037282;28;20505;-79
2022/08/29 12:25:27;;;;;;;9.60;2.55;;;32.40;51.60;;;;;;5037157;28;20034;-77
2022/08/29 12:27:59;;;;;;;10.95;2.50;;;32.50;51.40;;;;;;5037008;28;20026;-78
2022/08/29 12:30:27;;;;;;;7.30;3.20;;;32.50;51.80;;;;;;5037179;28;20036;-77
2022/08/29 12:32:59;;;;;;;4.97;2.40;;;32.60;51.80;;;;;;5037124;28;20021;-78
2022/08/29 12:35:49;;;;;;;6.40;2.17;;;32.70;52.10;;;;;;5036607;28;20033;-78
2022/08/29 12:38:28;;;;;;;6.03;1.98;;;32.70;50.70;;;;;;5037699;28;20164;-78
2022/08/29 12:41:13;;;;;;;5.80;2.08;;;32.70;50.80;;;;;;5021930;28;20041;-79
2022/08/29 12:43:42;;;;;;;6.05;1.90;;;32.80;51.80;;;;;;5040251;28;20124;-78
2022/08/29 12:46:20;;;;;;;10.13;2.05;;;32.70;52.30;;;;;;5040435;28;20021;-77
2022/08/29 12:48:53;;;;;;;7.03;2.13;;;32.60;52.50;;;;;;5040793;28;20091;-77
2022/08/29 12:51:37;;;;;;;4.95;2.30;;;32.50;52.30;;;;;;5041477;28;20033;-77
2022/08/29 12:54:03;;;;;;;7.10;2.08;;;32.60;52.60;;;;;;5038347;28;20112;-77
2022/08/29 12:56:30;;;;;;;5.57;1.83;;;32.60;52.20;;;;;;5037135;28;20053;-78
2022/08/29 12:58:59;;;;;;;6.57;2.42;;;32.70;52.50;;;;;;5019375;28;20029;-78
2022/08/29 13:01:25;;;;;;;4.45;1.80;;;32.70;52.20;;;;;;5037074;28;20030;-78
2022/08/29 13:03:59;;;;;;;8.38;2.05;;;32.80;51.90;;;;;;5036894;28;20021;-77
2022/08/29 13:06:25;;;;;;;6.75;2.70;;;32.80;51.70;;;;;;5036416;28;20021;-78
2022/08/29 13:08:51;;;;;;;4.63;2.03;;;32.80;51.70;;;;;;5036303;28;20025;-80
2022/08/29 13:11:25;;;;;;;6.47;2.38;;;32.90;51.70;;;;;;5036512;28;20117;-77